createdAt,value
2022-07-25T00:00:32.207Z,13.91
2022-07-25T00:01:03.623Z,14.08
2022-07-25T00:01:36.002Z,14.08
2022-07-25T00:02:05.740Z,14.01
2022-07-25T00:02:42.219Z,14.01
2022-07-25T00:03:09.601Z,14.01
2022-07-25T00:03:42.489Z,14.01
2022-07-25T00:04:16.576Z,14.01
2022-07-25T00:04:45.491Z,14.01
2022-07-25T00:05:17.671Z,14.01
2022-07-25T00:05:49.384Z,14.01
2022-07-25T00:06:22.464Z,14.01
2022-07-25T00:06:53.336Z,14.01
2022-07-25T00:07:26.398Z,14.12
2022-07-25T00:07:57.268Z,14.12
2022-07-25T00:08:29.351Z,14.12
2022-07-25T00:09:02.868Z,14.12
2022-07-25T00:09:34.099Z,14.12
2022-07-25T00:10:08.573Z,14.12
2022-07-25T00:10:38.920Z,14.12
2022-07-25T00:11:09.245Z,14.30
2022-07-25T00:11:42.078Z,14.30
2022-07-25T00:12:13.106Z,14.30
2022-07-25T00:12:47.188Z,14.30
2022-07-25T00:13:17.032Z,14.12
2022-07-25T00:13:50.916Z,14.12
2022-07-25T00:14:23.750Z,14.12
2022-07-25T00:14:53.815Z,14.12
2022-07-25T00:15:27.838Z,14.01
2022-07-25T00:15:57.786Z,14.01
2022-07-25T00:16:29.023Z,14.01
2022-07-25T00:17:02.738Z,14.01
2022-07-25T00:17:32.961Z,13.91
2022-07-25T00:18:05.752Z,13.91
2022-07-25T00:18:36.859Z,13.91
2022-07-25T00:19:10.441Z,13.91
2022-07-25T00:19:40.839Z,13.91
2022-07-25T00:20:14.085Z,13.91
2022-07-25T00:20:45.845Z,13.79
2022-07-25T00:21:17.681Z,13.79
2022-07-25T00:21:48.668Z,13.68
2022-07-25T00:22:21.622Z,13.68
2022-07-25T00:22:52.658Z,13.68
2022-07-25T00:23:25.595Z,13.68
2022-07-25T00:23:57.650Z,13.86
2022-07-25T00:24:30.508Z,13.86
2022-07-25T00:25:01.018Z,13.81
2022-07-25T00:25:34.637Z,13.81
2022-07-25T00:26:04.562Z,13.81
2022-07-25T00:26:40.308Z,13.81
2022-07-25T00:27:08.513Z,13.81
2022-07-25T00:27:42.587Z,13.81
2022-07-25T00:28:12.420Z,13.81
2022-07-25T00:28:45.845Z,13.81
2022-07-25T00:29:19.334Z,13.70
2022-07-25T00:29:50.182Z,13.70
2022-07-25T00:30:20.987Z,13.70
2022-07-25T00:30:53.236Z,13.70
2022-07-25T00:31:24.428Z,13.70
2022-07-25T00:31:59.429Z,13.70
2022-07-25T00:32:28.336Z,13.70
2022-07-25T00:33:02.298Z,13.70
2022-07-25T00:33:32.247Z,13.70
2022-07-25T00:34:05.556Z,13.70
2022-07-25T00:34:36.354Z,13.89
2022-07-25T00:35:11.424Z,13.89
2022-07-25T00:35:40.039Z,13.70
2022-07-25T00:36:14.353Z,13.70
2022-07-25T00:36:44.174Z,13.70
2022-07-25T00:37:16.963Z,13.70
2022-07-25T00:37:48.161Z,13.78
2022-07-25T00:38:21.807Z,13.78
2022-07-25T00:38:53.028Z,13.78
2022-07-25T00:39:24.794Z,13.78
2022-07-25T00:39:55.973Z,13.78
2022-07-25T00:40:29.372Z,13.78
2022-07-25T00:40:59.890Z,13.78
2022-07-25T00:41:33.865Z,13.78
2022-07-25T00:42:04.812Z,13.78
2022-07-25T00:42:37.468Z,13.78
2022-07-25T00:43:07.782Z,13.78
2022-07-25T00:43:40.781Z,13.78
2022-07-25T00:44:13.378Z,13.67
2022-07-25T00:44:45.582Z,13.67
2022-07-25T00:45:16.289Z,13.86
2022-07-25T00:45:48.617Z,13.86
2022-07-25T00:46:20.653Z,13.86
2022-07-25T00:46:52.663Z,13.86
2022-07-25T00:47:23.655Z,13.86
2022-07-25T00:47:56.536Z,13.86
2022-07-25T00:48:27.760Z,13.86
2022-07-25T00:49:00.641Z,13.86
2022-07-25T00:49:32.584Z,13.67
2022-07-25T00:50:04.779Z,13.67
2022-07-25T00:50:35.597Z,13.56
2022-07-25T00:51:10.154Z,13.56
2022-07-25T00:51:39.543Z,13.56
2022-07-25T00:52:12.399Z,13.56
2022-07-25T00:52:43.518Z,13.75
2022-07-25T00:53:16.253Z,13.75
2022-07-25T00:53:47.423Z,13.70
2022-07-25T00:54:20.219Z,13.70
2022-07-25T00:54:51.373Z,13.70
2022-07-25T00:55:24.902Z,13.70
2022-07-25T00:55:55.784Z,13.70
2022-07-25T00:56:36.417Z,13.70
2022-07-25T00:56:59.499Z,13.70
2022-07-25T00:57:31.290Z,13.70
2022-07-25T00:58:03.152Z,13.70
2022-07-25T00:58:35.288Z,13.70
2022-07-25T00:59:07.058Z,13.75
2022-07-25T00:59:39.154Z,13.75
2022-07-25T01:00:12.877Z,13.93
2022-07-25T01:00:43.983Z,13.93
2022-07-25T01:01:15.202Z,14.03
2022-07-25T01:01:47.030Z,14.03
2022-07-25T01:02:19.283Z,14.15
2022-07-25T01:02:51.130Z,14.15
2022-07-25T01:03:22.971Z,14.15
2022-07-25T01:03:55.136Z,14.15
2022-07-25T01:04:26.912Z,14.26
2022-07-25T01:04:58.936Z,14.26
2022-07-25T01:05:31.618Z,14.37
2022-07-25T01:06:02.898Z,14.37
2022-07-25T01:06:35.825Z,14.19
2022-07-25T01:07:07.372Z,14.19
2022-07-25T01:07:38.876Z,14.24
2022-07-25T01:08:11.609Z,14.24
2022-07-25T01:08:42.796Z,14.24
2022-07-25T01:09:14.896Z,14.24
2022-07-25T01:09:46.657Z,14.24
2022-07-25T01:10:19.080Z,14.24
2022-07-25T01:10:50.585Z,14.24
2022-07-25T01:11:22.810Z,14.24
2022-07-25T01:11:54.747Z,14.05
2022-07-25T01:12:26.640Z,14.05
2022-07-25T01:13:00.490Z,14.05
2022-07-25T01:13:30.574Z,14.05
2022-07-25T01:14:03.784Z,14.05
2022-07-25T01:14:34.547Z,14.05
2022-07-25T01:15:07.929Z,14.05
2022-07-25T01:15:38.396Z,14.05
2022-07-25T01:16:12.275Z,14.05
2022-07-25T01:16:42.532Z,14.05
2022-07-25T01:17:18.063Z,14.00
2022-07-25T01:17:48.642Z,14.00
2022-07-25T01:18:19.208Z,14.00
2022-07-25T01:18:51.377Z,14.00
2022-07-25T01:19:24.048Z,13.81
2022-07-25T01:19:54.268Z,13.81
2022-07-25T01:20:31.706Z,13.81
2022-07-25T01:20:58.185Z,13.81
2022-07-25T01:21:30.318Z,13.70
2022-07-25T01:22:02.159Z,13.70
2022-07-25T01:22:34.228Z,14.00
2022-07-25T01:23:06.144Z,14.00
2022-07-25T01:23:39.154Z,14.00
2022-07-25T01:24:10.191Z,14.00
2022-07-25T01:24:42.037Z,14.00
2022-07-25T01:25:14.448Z,14.00
2022-07-25T01:25:46.163Z,14.00
2022-07-25T01:26:18.993Z,14.00
2022-07-25T01:26:50.101Z,13.86
2022-07-25T01:27:21.938Z,13.86
2022-07-25T01:27:55.538Z,13.86
2022-07-25T01:28:25.891Z,13.86
2022-07-25T01:28:58.571Z,14.05
2022-07-25T01:29:29.812Z,14.05
2022-07-25T01:30:02.417Z,13.97
2022-07-25T01:30:33.913Z,13.97
2022-07-25T01:31:06.834Z,13.97
2022-07-25T01:31:37.909Z,13.97
2022-07-25T01:32:10.065Z,14.08
2022-07-25T01:32:41.740Z,14.08
2022-07-25T01:33:13.850Z,14.08
2022-07-25T01:33:46.392Z,14.08
2022-07-25T01:34:17.802Z,14.08
2022-07-25T01:34:49.612Z,14.08
2022-07-25T01:35:23.358Z,14.08
2022-07-25T01:35:53.711Z,14.08
2022-07-25T01:36:25.610Z,13.91
2022-07-25T01:36:58.420Z,13.91
2022-07-25T01:37:31.514Z,13.91
2022-07-25T01:38:01.576Z,13.91
2022-07-25T01:38:33.753Z,13.91
2022-07-25T01:39:07.441Z,13.91
2022-07-25T01:39:37.407Z,13.91
2022-07-25T01:40:10.745Z,13.91
2022-07-25T01:40:41.500Z,13.79
2022-07-25T01:41:14.278Z,13.79
2022-07-25T01:41:45.422Z,13.79
2022-07-25T01:42:19.259Z,13.79
2022-07-25T01:42:50.272Z,13.79
2022-07-25T01:43:25.141Z,13.79
2022-07-25T01:43:53.278Z,13.68
2022-07-25T01:44:28.351Z,13.68
2022-07-25T01:44:57.213Z,13.68
2022-07-25T01:45:32.640Z,13.68
2022-07-25T01:46:02.136Z,13.63
2022-07-25T01:46:34.503Z,13.63
2022-07-25T01:47:06.166Z,13.63
2022-07-25T01:47:38.883Z,13.63
2022-07-25T01:48:09.146Z,13.63
2022-07-25T01:48:43.855Z,13.63
2022-07-25T01:49:14.090Z,13.53
2022-07-25T01:49:49.361Z,13.53
2022-07-25T01:50:17.306Z,13.63
2022-07-25T01:50:50.051Z,13.63
2022-07-25T01:51:20.967Z,13.53
2022-07-25T01:51:56.999Z,13.53
2022-07-25T01:52:24.917Z,13.53
2022-07-25T01:52:57.837Z,13.53
2022-07-25T01:53:28.799Z,13.53
2022-07-25T01:54:01.824Z,13.53
2022-07-25T01:54:33.947Z,13.63
2022-07-25T01:55:06.405Z,13.63
2022-07-25T01:55:36.862Z,13.53
2022-07-25T01:56:11.030Z,13.53
2022-07-25T01:56:40.768Z,13.53
2022-07-25T01:57:14.670Z,13.53
2022-07-25T01:57:49.729Z,13.63
2022-07-25T01:58:20.289Z,13.63
2022-07-25T01:58:48.567Z,13.53
2022-07-25T01:59:21.903Z,13.53
2022-07-25T01:59:53.737Z,13.53
2022-07-25T02:00:26.875Z,13.53
2022-07-25T02:00:57.728Z,13.63
2022-07-25T02:01:29.499Z,13.63
2022-07-25T02:02:00.727Z,13.53
2022-07-25T02:02:35.617Z,13.53
2022-07-25T02:03:05.518Z,13.53
2022-07-25T02:03:38.956Z,13.53
2022-07-25T02:04:08.959Z,13.53
2022-07-25T02:04:41.456Z,13.53
2022-07-25T02:05:12.881Z,13.53
2022-07-25T02:05:50.811Z,13.53
2022-07-25T02:06:16.307Z,13.53
2022-07-25T02:06:49.276Z,13.53
2022-07-25T02:07:21.199Z,13.53
2022-07-25T02:07:52.335Z,13.53
2022-07-25T02:08:26.364Z,13.63
2022-07-25T02:08:56.230Z,13.63
2022-07-25T02:09:29.149Z,13.63
2022-07-25T02:10:01.668Z,13.63
2022-07-25T02:10:33.680Z,13.63
2022-07-25T02:11:04.306Z,13.63
2022-07-25T02:11:38.879Z,13.63
2022-07-25T02:12:08.168Z,13.63
2022-07-25T02:12:40.925Z,13.68
2022-07-25T02:13:12.119Z,13.68
2022-07-25T02:13:45.127Z,13.68
2022-07-25T02:14:15.982Z,13.68
2022-07-25T02:14:48.970Z,13.68
2022-07-25T02:15:20.382Z,13.68
2022-07-25T02:15:52.783Z,13.79
2022-07-25T02:16:28.832Z,13.79
2022-07-25T02:16:57.053Z,13.91
2022-07-25T02:17:28.033Z,13.91
2022-07-25T02:18:01.836Z,13.91
2022-07-25T02:18:31.894Z,13.91
2022-07-25T02:19:04.622Z,13.91
2022-07-25T02:19:36.665Z,13.91
2022-07-25T02:20:09.785Z,13.91
2022-07-25T02:20:39.724Z,13.91
2022-07-25T02:21:14.584Z,13.91
2022-07-25T02:21:43.676Z,13.91
2022-07-25T02:22:16.549Z,13.91
2022-07-25T02:22:47.597Z,13.91
2022-07-25T02:23:20.551Z,14.01
2022-07-25T02:23:52.696Z,14.01
2022-07-25T02:24:25.472Z,14.01
2022-07-25T02:24:55.679Z,14.01
2022-07-25T02:25:28.780Z,13.82
2022-07-25T02:25:59.757Z,13.82
2022-07-25T02:26:32.754Z,13.82
2022-07-25T02:27:03.445Z,13.82
2022-07-25T02:27:36.430Z,13.82
2022-07-25T02:28:07.388Z,13.82
2022-07-25T02:28:41.304Z,13.82
2022-07-25T02:29:11.359Z,13.82
2022-07-25T02:29:44.428Z,13.82
2022-07-25T02:30:15.953Z,13.82
2022-07-25T02:30:48.291Z,13.93
2022-07-25T02:31:19.565Z,13.93
2022-07-25T02:31:53.148Z,13.82
2022-07-25T02:32:23.278Z,13.82
2022-07-25T02:32:56.344Z,13.93
2022-07-25T02:33:27.254Z,13.93
2022-07-25T02:34:00.195Z,13.82
2022-07-25T02:34:31.167Z,13.82
2022-07-25T02:35:04.567Z,13.93
2022-07-25T02:35:36.295Z,13.93
2022-07-25T02:36:08.140Z,13.93
2022-07-25T02:36:39.158Z,13.93
2022-07-25T02:37:12.763Z,13.93
2022-07-25T02:37:43.130Z,13.93
2022-07-25T02:38:15.915Z,13.93
2022-07-25T02:38:50.035Z,13.93
2022-07-25T02:39:20.076Z,13.93
2022-07-25T02:39:50.932Z,13.93
2022-07-25T02:40:24.078Z,13.98
2022-07-25T02:40:55.161Z,13.98
2022-07-25T02:41:27.866Z,13.98
2022-07-25T02:41:58.758Z,13.98
2022-07-25T02:42:31.849Z,13.79
2022-07-25T02:43:02.909Z,13.79
2022-07-25T02:43:36.609Z,13.79
2022-07-25T02:44:07.463Z,13.79
2022-07-25T02:44:39.505Z,13.79
2022-07-25T02:45:11.382Z,13.79
2022-07-25T02:45:43.484Z,13.79
2022-07-25T02:46:14.925Z,13.79
2022-07-25T02:46:47.777Z,13.74
2022-07-25T02:47:18.633Z,13.74
2022-07-25T02:47:51.493Z,13.74
2022-07-25T02:48:23.559Z,13.74
2022-07-25T02:48:55.440Z,13.79
2022-07-25T02:49:26.518Z,13.79
2022-07-25T02:50:01.003Z,13.74
2022-07-25T02:50:30.608Z,13.74
2022-07-25T02:51:03.490Z,13.74
2022-07-25T02:51:34.705Z,13.74
2022-07-25T02:52:07.401Z,13.74
2022-07-25T02:52:38.479Z,13.74
2022-07-25T02:53:11.377Z,13.74
2022-07-25T02:54:15.815Z,13.74
2022-07-25T02:54:46.290Z,13.74
2022-07-25T02:55:20.190Z,13.74
2022-07-25T02:55:50.205Z,13.74
2022-07-25T02:56:23.327Z,13.74
2022-07-25T02:56:54.164Z,13.74
2022-07-25T02:57:27.031Z,13.74
2022-07-25T02:58:00.306Z,13.74
2022-07-25T02:58:31.170Z,13.74
2022-07-25T02:59:02.196Z,13.74
2022-07-25T02:59:36.085Z,13.74
2022-07-25T03:00:06.962Z,13.74
2022-07-25T03:00:39.198Z,13.74
2022-07-25T03:01:10.149Z,13.74
2022-07-25T03:01:43.566Z,13.74
2022-07-25T03:02:14.191Z,13.74
2022-07-25T03:02:47.099Z,13.74
2022-07-25T03:03:18.073Z,13.74
2022-07-25T03:03:50.910Z,13.74
2022-07-25T03:04:22.720Z,13.74
2022-07-25T03:04:55.965Z,13.63
2022-07-25T03:05:26.385Z,13.63
2022-07-25T03:05:58.730Z,13.63
2022-07-25T03:06:29.886Z,13.63
2022-07-25T03:07:02.642Z,13.74
2022-07-25T03:07:33.782Z,13.74
2022-07-25T03:08:06.999Z,13.74
2022-07-25T03:08:37.741Z,13.74
2022-07-25T03:09:10.837Z,13.63
2022-07-25T03:09:41.644Z,13.63
2022-07-25T03:10:15.237Z,13.63
2022-07-25T03:10:45.770Z,13.63
2022-07-25T03:11:18.758Z,13.63
2022-07-25T03:11:49.705Z,13.63
2022-07-25T03:12:22.527Z,13.74
2022-07-25T03:12:54.777Z,13.74
2022-07-25T03:13:26.285Z,13.74
2022-07-25T03:13:57.558Z,13.74
2022-07-25T03:14:31.632Z,13.74
2022-07-25T03:15:02.046Z,13.74
2022-07-25T03:15:35.098Z,13.74
2022-07-25T03:16:05.478Z,13.74
2022-07-25T03:16:39.451Z,13.74
2022-07-25T03:17:09.391Z,13.74
2022-07-25T03:17:43.164Z,13.74
2022-07-25T03:18:13.462Z,13.74
2022-07-25T03:18:46.733Z,13.74
2022-07-25T03:19:19.313Z,13.74
2022-07-25T03:19:50.202Z,13.74
2022-07-25T03:20:22.057Z,13.74
2022-07-25T03:20:54.296Z,13.74
2022-07-25T03:21:25.220Z,13.74
2022-07-25T03:21:58.215Z,13.63
2022-07-25T03:22:30.257Z,13.63
2022-07-25T03:23:02.108Z,13.63
2022-07-25T03:23:33.129Z,13.63
2022-07-25T03:24:06.506Z,13.63
2022-07-25T03:24:37.039Z,13.63
2022-07-25T03:25:15.431Z,13.63
2022-07-25T03:25:41.308Z,13.63
2022-07-25T03:26:14.090Z,13.63
2022-07-25T03:26:45.033Z,13.63
2022-07-25T03:27:17.705Z,13.63
2022-07-25T03:27:49.970Z,13.63
2022-07-25T03:28:21.615Z,13.63
2022-07-25T03:28:52.909Z,13.63
2022-07-25T03:29:25.906Z,13.63
2022-07-25T03:29:56.842Z,13.63
2022-07-25T03:30:30.199Z,13.63
2022-07-25T03:31:01.794Z,13.63
2022-07-25T03:31:34.103Z,13.63
2022-07-25T03:32:04.962Z,13.63
2022-07-25T03:32:37.714Z,13.63
2022-07-25T03:33:08.880Z,13.63
2022-07-25T03:33:42.491Z,13.63
2022-07-25T03:34:12.707Z,13.63
2022-07-25T03:34:45.680Z,13.74
2022-07-25T03:35:16.970Z,13.74
2022-07-25T03:35:49.618Z,13.74
2022-07-25T03:36:20.636Z,13.74
2022-07-25T03:36:53.712Z,13.79
2022-07-25T03:37:24.573Z,13.79
2022-07-25T03:37:57.403Z,13.60
2022-07-25T03:38:28.688Z,13.60
2022-07-25T03:39:01.718Z,13.60
2022-07-25T03:39:33.114Z,13.60
2022-07-25T03:40:05.736Z,13.70
2022-07-25T03:40:36.576Z,13.70
2022-07-25T03:41:09.349Z,13.70
2022-07-25T03:41:40.401Z,13.70
2022-07-25T03:42:13.844Z,13.70
2022-07-25T03:42:44.352Z,13.70
2022-07-25T03:43:22.119Z,13.70
2022-07-25T03:43:48.287Z,13.70
2022-07-25T03:44:21.115Z,13.70
2022-07-25T03:44:52.475Z,13.70
2022-07-25T03:45:25.818Z,13.82
2022-07-25T03:45:56.381Z,13.82
2022-07-25T03:46:30.114Z,13.82
2022-07-25T03:47:00.250Z,13.82
2022-07-25T03:47:32.923Z,13.62
2022-07-25T03:48:04.156Z,13.62
2022-07-25T03:48:37.175Z,13.62
2022-07-25T03:49:08.221Z,13.62
2022-07-25T03:49:41.153Z,13.62
2022-07-25T03:50:12.334Z,13.62
2022-07-25T03:50:46.015Z,13.62
2022-07-25T03:51:16.173Z,13.62
2022-07-25T03:51:48.951Z,13.62
2022-07-25T03:52:20.387Z,13.62
2022-07-25T03:52:52.959Z,13.72
2022-07-25T03:53:24.006Z,13.72
2022-07-25T03:53:57.720Z,13.72
2022-07-25T03:54:27.880Z,13.72
2022-07-25T03:55:01.442Z,13.72
2022-07-25T03:55:31.835Z,13.72
2022-07-25T03:56:04.909Z,13.72
2022-07-25T03:56:36.348Z,13.72
2022-07-25T03:57:09.727Z,13.72
2022-07-25T03:57:41.913Z,13.72
2022-07-25T03:58:12.565Z,13.72
2022-07-25T03:58:43.790Z,13.72
2022-07-25T03:59:16.568Z,13.83
2022-07-25T03:59:47.706Z,13.83
2022-07-25T04:00:21.872Z,13.72
2022-07-25T04:00:51.734Z,13.72
2022-07-25T04:01:24.781Z,13.83
2022-07-25T04:01:55.660Z,13.83
2022-07-25T04:02:28.537Z,13.83
2022-07-25T04:02:59.540Z,13.83
2022-07-25T04:03:33.325Z,13.83
2022-07-25T04:04:03.977Z,13.83
2022-07-25T04:04:36.584Z,13.83
2022-07-25T04:05:07.683Z,13.83
2022-07-25T04:05:44.253Z,13.69
2022-07-25T04:06:11.518Z,13.69
2022-07-25T04:06:46.771Z,13.69
2022-07-25T04:07:15.386Z,13.69
2022-07-25T04:07:48.956Z,13.69
2022-07-25T04:08:19.364Z,13.69
2022-07-25T04:08:52.255Z,13.69
2022-07-25T04:09:23.248Z,13.69
2022-07-25T04:09:56.178Z,13.79
2022-07-25T04:10:29.575Z,13.79
2022-07-25T04:11:00.181Z,13.91
2022-07-25T04:11:31.258Z,13.91
2022-07-25T04:12:04.253Z,13.91
2022-07-25T04:12:37.166Z,13.91
2022-07-25T04:13:08.891Z,13.91
2022-07-25T04:13:39.176Z,13.91
2022-07-25T04:14:11.828Z,14.02
2022-07-25T04:14:43.079Z,14.02
2022-07-25T04:15:16.458Z,14.02
2022-07-25T04:15:47.918Z,14.02
2022-07-25T04:16:22.476Z,14.12
2022-07-25T04:16:50.986Z,14.12
2022-07-25T04:17:24.325Z,13.92
2022-07-25T04:17:55.027Z,13.92
2022-07-25T04:18:28.917Z,13.92
2022-07-25T04:18:59.005Z,13.92
2022-07-25T04:19:31.740Z,13.97
2022-07-25T04:20:03.213Z,13.97
2022-07-25T04:20:36.625Z,13.97
2022-07-25T04:21:06.815Z,13.97
2022-07-25T04:21:39.987Z,13.97
2022-07-25T04:22:10.781Z,13.97
2022-07-25T04:22:46.894Z,14.07
2022-07-25T04:23:14.686Z,14.07
2022-07-25T04:23:53.644Z,14.07
2022-07-25T04:24:19.028Z,14.07
2022-07-25T04:24:51.138Z,14.19
2022-07-25T04:25:22.820Z,14.19
2022-07-25T04:25:54.577Z,14.19
2022-07-25T04:26:27.667Z,14.19
2022-07-25T04:26:58.884Z,14.30
2022-07-25T04:27:30.544Z,14.30
2022-07-25T04:28:02.857Z,14.40
2022-07-25T04:28:34.563Z,14.40
2022-07-25T04:29:07.534Z,14.40
2022-07-25T04:29:38.421Z,14.40
2022-07-25T04:30:11.108Z,14.45
2022-07-25T04:30:42.283Z,14.45
2022-07-25T04:31:16.387Z,14.35
2022-07-25T04:31:46.490Z,14.35
2022-07-25T04:32:23.123Z,14.35
2022-07-25T04:32:50.369Z,14.35
2022-07-25T04:33:24.319Z,14.47
2022-07-25T04:33:54.483Z,14.47
2022-07-25T04:34:26.167Z,14.47
2022-07-25T04:34:58.445Z,14.47
2022-07-25T04:35:30.593Z,14.57
2022-07-25T04:36:03.269Z,14.57
2022-07-25T04:36:34.245Z,14.35
2022-07-25T04:37:06.111Z,14.35
2022-07-25T04:37:39.023Z,14.46
2022-07-25T04:38:12.175Z,14.46
2022-07-25T04:38:42.038Z,14.46
2022-07-25T04:39:14.131Z,14.46
2022-07-25T04:39:47.049Z,14.51
2022-07-25T04:40:18.327Z,14.51
2022-07-25T04:40:49.908Z,14.51
2022-07-25T04:41:22.375Z,14.51
2022-07-25T04:41:54.010Z,14.61
2022-07-25T04:42:25.927Z,14.61
2022-07-25T04:42:58.907Z,14.73
2022-07-25T04:43:29.781Z,14.73
2022-07-25T04:44:01.840Z,14.73
2022-07-25T04:44:33.893Z,14.73
2022-07-25T04:45:06.552Z,14.73
2022-07-25T04:45:38.210Z,14.73
2022-07-25T04:46:09.866Z,14.83
2022-07-25T04:46:41.770Z,14.83
2022-07-25T04:47:13.674Z,14.83
2022-07-25T04:47:46.553Z,14.83
2022-07-25T04:48:17.606Z,14.94
2022-07-25T04:48:49.752Z,14.94
2022-07-25T04:49:21.706Z,14.73
2022-07-25T04:49:53.530Z,14.73
2022-07-25T04:50:25.834Z,14.73
2022-07-25T04:50:58.338Z,14.73
2022-07-25T04:51:29.505Z,14.78
2022-07-25T04:52:01.497Z,14.78
2022-07-25T04:52:35.789Z,14.89
2022-07-25T04:53:05.627Z,14.89
2022-07-25T04:53:37.484Z,14.89
2022-07-25T04:54:09.931Z,14.89
2022-07-25T04:54:41.345Z,14.89
2022-07-25T04:55:13.739Z,14.89
2022-07-25T04:55:45.938Z,15.00
2022-07-25T04:56:17.312Z,15.00
2022-07-25T04:56:49.363Z,15.00
2022-07-25T04:57:21.226Z,15.00
2022-07-25T04:57:53.292Z,15.00
2022-07-25T04:58:25.142Z,15.00
2022-07-25T04:58:58.696Z,15.00
2022-07-25T04:59:29.209Z,15.00
2022-07-25T05:00:01.801Z,15.00
2022-07-25T05:00:33.258Z,15.00
2022-07-25T05:01:08.271Z,15.00
2022-07-25T05:01:37.117Z,15.00
2022-07-25T05:02:10.210Z,15.11
2022-07-25T05:02:41.059Z,15.11
2022-07-25T05:03:14.152Z,15.11
2022-07-25T05:03:50.478Z,15.11
2022-07-25T05:04:18.118Z,15.11
2022-07-25T05:04:48.932Z,15.11
2022-07-25T05:05:23.222Z,15.21
2022-07-25T05:05:53.085Z,15.21
2022-07-25T05:06:26.208Z,15.11
2022-07-25T05:06:58.746Z,15.11
2022-07-25T05:07:29.637Z,15.21
2022-07-25T05:08:00.942Z,15.21
2022-07-25T05:08:33.855Z,15.21
2022-07-25T05:09:04.898Z,15.21
2022-07-25T05:09:37.726Z,15.21
2022-07-25T05:10:08.992Z,15.21
2022-07-25T05:10:41.623Z,15.21
2022-07-25T05:11:12.639Z,15.21
2022-07-25T05:11:48.011Z,15.01
2022-07-25T05:12:16.870Z,15.01
2022-07-25T05:12:49.697Z,15.01
2022-07-25T05:13:20.714Z,15.01
2022-07-25T05:13:53.359Z,15.01
2022-07-25T05:14:24.661Z,15.01
2022-07-25T05:14:59.297Z,15.05
2022-07-25T05:15:30.079Z,15.05
2022-07-25T05:16:01.476Z,15.05
2022-07-25T05:16:32.621Z,15.05
2022-07-25T05:17:06.472Z,15.05
2022-07-25T05:17:36.362Z,15.05
2022-07-25T05:18:09.378Z,15.05
2022-07-25T05:18:40.316Z,15.05
2022-07-25T05:19:13.715Z,15.16
2022-07-25T05:19:44.455Z,15.16
2022-07-25T05:20:17.434Z,15.16
2022-07-25T05:20:48.403Z,15.16
2022-07-25T05:21:21.221Z,15.16
2022-07-25T05:21:52.404Z,15.16
2022-07-25T05:22:28.210Z,15.16
2022-07-25T05:22:56.300Z,15.16
2022-07-25T05:23:29.198Z,15.27
2022-07-25T05:24:00.224Z,15.27
2022-07-25T05:24:34.337Z,15.27
2022-07-25T05:25:04.591Z,15.27
2022-07-25T05:25:36.994Z,15.27
2022-07-25T05:26:08.011Z,15.27
2022-07-25T05:26:41.072Z,15.38
2022-07-25T05:27:12.228Z,15.38
2022-07-25T05:27:44.972Z,15.38
2022-07-25T05:28:16.583Z,15.38
2022-07-25T05:28:48.839Z,15.38
2022-07-25T05:29:20.011Z,15.38
2022-07-25T05:29:52.900Z,15.38
2022-07-25T05:30:24.421Z,15.38
2022-07-25T05:30:56.614Z,15.49
2022-07-25T05:31:28.032Z,15.49
2022-07-25T05:32:00.853Z,15.49
2022-07-25T05:32:32.141Z,15.49
2022-07-25T05:33:06.032Z,15.49
2022-07-25T05:33:36.698Z,15.49
2022-07-25T05:34:10.105Z,15.49
2022-07-25T05:34:39.879Z,15.49
2022-07-25T05:35:12.947Z,15.53
2022-07-25T05:35:43.756Z,15.53
2022-07-25T05:36:16.641Z,15.53
2022-07-25T05:36:47.687Z,15.53
2022-07-25T05:37:20.577Z,15.31
2022-07-25T05:37:52.651Z,15.31
2022-07-25T05:38:25.494Z,15.42
2022-07-25T05:38:55.578Z,15.42
2022-07-25T05:39:28.398Z,15.42
2022-07-25T05:39:59.490Z,15.42
2022-07-25T05:40:33.357Z,15.42
2022-07-25T05:41:03.379Z,15.42
2022-07-25T05:41:36.750Z,15.42
2022-07-25T05:42:08.349Z,15.42
2022-07-25T05:42:40.346Z,15.42
2022-07-25T05:43:11.451Z,15.42
2022-07-25T05:43:44.218Z,15.42
2022-07-25T05:44:15.374Z,15.42
2022-07-25T05:44:48.304Z,15.42
2022-07-25T05:45:19.818Z,15.42
2022-07-25T05:45:53.135Z,15.42
2022-07-25T05:46:24.134Z,15.42
2022-07-25T05:46:57.327Z,15.42
2022-07-25T05:47:27.166Z,15.42
2022-07-25T05:48:01.307Z,15.42
2022-07-25T05:48:31.123Z,15.42
2022-07-25T05:49:07.166Z,15.42
2022-07-25T05:49:35.238Z,15.42
2022-07-25T05:50:08.150Z,15.42
2022-07-25T05:50:39.086Z,15.42
2022-07-25T05:51:10.949Z,15.42
2022-07-25T05:51:43.032Z,15.42
2022-07-25T05:52:14.944Z,15.42
2022-07-25T05:52:47.040Z,15.42
2022-07-25T05:53:19.702Z,15.53
2022-07-25T05:53:53.067Z,15.53
2022-07-25T05:54:23.246Z,15.53
2022-07-25T05:54:54.851Z,15.53
2022-07-25T05:55:27.255Z,15.53
2022-07-25T05:55:58.919Z,15.53
2022-07-25T05:56:31.873Z,15.53
2022-07-25T05:57:02.894Z,15.53
2022-07-25T05:57:34.818Z,15.64
2022-07-25T05:58:07.845Z,15.64
2022-07-25T05:58:38.710Z,15.64
2022-07-25T05:59:10.742Z,15.64
2022-07-25T05:59:42.785Z,15.64
2022-07-25T06:00:16.236Z,15.64
2022-07-25T06:00:46.717Z,15.74
2022-07-25T06:01:18.596Z,15.74
2022-07-25T06:01:50.921Z,15.74
2022-07-25T06:02:22.752Z,15.74
2022-07-25T06:02:54.739Z,15.79
2022-07-25T06:03:26.833Z,15.79
2022-07-25T06:03:58.705Z,15.90
2022-07-25T06:04:30.587Z,15.90
2022-07-25T06:05:03.800Z,16.01
2022-07-25T06:05:35.418Z,16.01
2022-07-25T06:06:06.375Z,15.79
2022-07-25T06:06:38.535Z,15.79
2022-07-25T06:07:12.002Z,15.89
2022-07-25T06:07:42.386Z,15.89
2022-07-25T06:08:14.216Z,15.89
2022-07-25T06:08:47.666Z,15.89
2022-07-25T06:09:18.408Z,16.00
2022-07-25T06:09:50.285Z,16.00
2022-07-25T06:10:23.490Z,16.00
2022-07-25T06:10:55.200Z,16.00
2022-07-25T06:11:26.251Z,16.27
2022-07-25T06:12:01.062Z,16.27
2022-07-25T06:12:30.224Z,16.38
2022-07-25T06:13:02.216Z,16.38
2022-07-25T06:13:34.071Z,16.60
2022-07-25T06:14:06.624Z,16.60
2022-07-25T06:14:38.845Z,16.49
2022-07-25T06:15:17.711Z,16.49
2022-07-25T06:15:42.162Z,16.60
2022-07-25T06:16:14.099Z,16.60
2022-07-25T06:16:46.266Z,16.93
2022-07-25T06:17:17.987Z,16.93
2022-07-25T06:17:50.008Z,16.93
2022-07-25T06:18:21.896Z,16.93
2022-07-25T06:18:53.945Z,16.85
2022-07-25T06:19:26.027Z,16.85
2022-07-25T06:19:57.875Z,16.74
2022-07-25T06:20:30.189Z,16.74
2022-07-25T06:21:02.847Z,17.18
2022-07-25T06:21:33.845Z,17.18
2022-07-25T06:22:06.716Z,17.00
2022-07-25T06:22:37.804Z,17.00
2022-07-25T06:23:09.744Z,17.22
2022-07-25T06:23:41.741Z,17.22
2022-07-25T06:24:13.682Z,17.33
2022-07-25T06:24:46.663Z,17.33
2022-07-25T06:25:18.961Z,17.43
2022-07-25T06:25:50.217Z,17.43
2022-07-25T06:26:21.703Z,17.36
2022-07-25T06:26:53.529Z,17.36
2022-07-25T06:27:29.217Z,17.58
2022-07-25T06:27:57.651Z,17.58
2022-07-25T06:28:29.571Z,17.46
2022-07-25T06:29:01.608Z,17.46
2022-07-25T06:29:33.771Z,17.51
2022-07-25T06:30:18.607Z,17.51
2022-07-25T06:30:37.405Z,16.01
2022-07-25T06:31:09.698Z,16.01
2022-07-25T06:31:42.334Z,16.12
2022-07-25T06:32:15.629Z,16.12
2022-07-25T06:32:45.796Z,16.22
2022-07-25T06:33:17.340Z,16.22
2022-07-25T06:33:49.420Z,16.22
2022-07-25T06:34:21.192Z,16.22
2022-07-25T06:34:54.312Z,15.58
2022-07-25T06:35:26.409Z,15.58
2022-07-25T06:35:57.258Z,15.69
2022-07-25T06:36:32.822Z,15.69
2022-07-25T06:37:03.225Z,15.51
2022-07-25T06:37:36.521Z,15.51
2022-07-25T06:38:05.167Z,16.16
2022-07-25T06:38:39.180Z,16.16
2022-07-25T06:39:09.051Z,16.16
2022-07-25T06:39:45.464Z,16.16
2022-07-25T06:40:16.216Z,15.94
2022-07-25T06:40:45.078Z,15.94
2022-07-25T06:41:16.891Z,16.04
2022-07-25T06:41:49.987Z,16.04
2022-07-25T06:42:21.963Z,15.87
2022-07-25T06:42:52.994Z,15.87
2022-07-25T06:43:25.031Z,16.16
2022-07-25T06:43:57.824Z,16.16
2022-07-25T06:44:29.895Z,16.53
2022-07-25T06:45:01.644Z,16.53
2022-07-25T06:45:32.825Z,16.63
2022-07-25T06:46:04.962Z,16.63
2022-07-25T06:46:36.862Z,16.63
2022-07-25T06:47:08.842Z,16.63
2022-07-25T06:47:41.765Z,16.41
2022-07-25T06:48:13.791Z,16.41
2022-07-25T06:48:44.834Z,16.41
2022-07-25T06:49:17.575Z,16.41
2022-07-25T06:49:48.754Z,16.41
2022-07-25T06:50:32.120Z,16.41
2022-07-25T06:50:53.396Z,15.69
2022-07-25T06:51:24.492Z,15.69
2022-07-25T06:51:56.557Z,15.96
2022-07-25T06:52:28.480Z,15.96